KBUR

Bob Hope Airport

Airport
ICAO code
KBUR
IATA Code
BUR
Summary
ICAO Region
NAM
ICAO Territory
Location

Burbank, California

Serving
Los Angeles
Elevation
778 ft
Coordinates
34° 12' 2" N , 118° 21' 30" W
KCC
Csa
Airport RE
Engineered Materials Arresting System
Metar
Observation
KBUR 120153Z 17005KT 10SM CLR 32/04 A2991 RMK AO2 SLP114 T03170044
Station
Burbank, Burbank-Glendale-Pasadena Airport
Date/Time
2022-08-12 01:53:00
Wind direction
170°
Wind speed
05 kts
Lowest cloud amount
n/a
Temperature
31.7°C
Dew point
4.4°C
Humidity
17%
Weather condition
n/a

Bob Hope Airport, is a public airport located 5 km northwest of the central business district of Burbank, a city in Los Angeles County, California, United States.

Climatology

Mediterranean climate or Dry-Summer Subtropical climate(Köppen climate classification Csa)

Airport map

Aerial View

Airport accidents

SKYbrary Partners:

Safety knowledge contributed by: